sensor_id;sensor_type;location;lat;lon;timestamp;P1;durP1;ratioP1;P2;durP2;ratioP2
74401;SDS011;62837;51.082;13.744;2023-04-30T00:01:32;12.50;;;8.70;;
74401;SDS011;62837;51.082;13.744;2023-04-30T00:04:03;11.60;;;8.20;;
74401;SDS011;62837;51.082;13.744;2023-04-30T00:06:34;11.10;;;8.20;;
74401;SDS011;62837;51.082;13.744;2023-04-30T00:09:05;12.40;;;8.50;;
74401;SDS011;62837;51.082;13.744;2023-04-30T00:11:36;11.20;;;9.20;;
74401;SDS011;62837;51.082;13.744;2023-04-30T00:14:06;12.40;;;8.60;;
74401;SDS011;62837;51.082;13.744;2023-04-30T00:16:38;13.70;;;9.50;;
74401;SDS011;62837;51.082;13.744;2023-04-30T00:19:09;12.80;;;8.80;;
74401;SDS011;62837;51.082;13.744;2023-04-30T00:21:39;10.20;;;8.20;;
74401;SDS011;62837;51.082;13.744;2023-04-30T00:24:10;14.50;;;8.50;;
74401;SDS011;62837;51.082;13.744;2023-04-30T00:26:41;14.10;;;8.00;;
74401;SDS011;62837;51.082;13.744;2023-04-30T00:29:11;10.30;;;5.80;;
74401;SDS011;62837;51.082;13.744;2023-04-30T00:31:42;10.50;;;7.40;;
74401;SDS011;62837;51.082;13.744;2023-04-30T00:34:13;10.50;;;6.30;;
74401;SDS011;62837;51.082;13.744;2023-04-30T00:36:44;7.70;;;5.50;;
74401;SDS011;62837;51.082;13.744;2023-04-30T00:39:15;7.70;;;5.20;;
74401;SDS011;62837;51.082;13.744;2023-04-30T00:41:46;6.60;;;4.60;;
74401;SDS011;62837;51.082;13.744;2023-04-30T00:44:16;6.10;;;4.10;;
74401;SDS011;62837;51.082;13.744;2023-04-30T00:46:47;8.20;;;4.60;;
74401;SDS011;62837;51.082;13.744;2023-04-30T00:49:18;6.50;;;4.50;;
74401;SDS011;62837;51.082;13.744;2023-04-30T00:51:48;6.60;;;4.40;;
74401;SDS011;62837;51.082;13.744;2023-04-30T00:54:20;7.00;;;4.40;;
74401;SDS011;62837;51.082;13.744;2023-04-30T00:56:52;8.70;;;4.30;;
74401;SDS011;62837;51.082;13.744;2023-04-30T00:59:23;7.60;;;3.60;;
74401;SDS011;62837;51.082;13.744;2023-04-30T01:01:56;5.80;;;4.00;;
74401;SDS011;62837;51.082;13.744;2023-04-30T01:04:27;7.60;;;4.40;;
74401;SDS011;62837;51.082;13.744;2023-04-30T01:06:58;7.10;;;4.40;;
74401;SDS011;62837;51.082;13.744;2023-04-30T01:09:30;7.20;;;4.30;;
74401;SDS011;62837;51.082;13.744;2023-04-30T01:12:04;7.70;;;3.80;;
74401;SDS011;62837;51.082;13.744;2023-04-30T01:14:44;6.90;;;4.40;;
74401;SDS011;62837;51.082;13.744;2023-04-30T01:17:27;9.60;;;4.90;;
74401;SDS011;62837;51.082;13.744;2023-04-30T01:20:03;6.50;;;4.40;;
74401;SDS011;62837;51.082;13.744;2023-04-30T01:22:38;9.80;;;7.10;;
74401;SDS011;62837;51.082;13.744;2023-04-30T01:25:24;8.60;;;4.70;;
74401;SDS011;62837;51.082;13.744;2023-04-30T01:28:20;9.40;;;5.00;;
74401;SDS011;62837;51.082;13.744;2023-04-30T01:30:52;7.90;;;4.30;;
74401;SDS011;62837;51.082;13.744;2023-04-30T01:33:23;7.00;;;5.20;;
74401;SDS011;62837;51.082;13.744;2023-04-30T01:36:00;6.90;;;3.80;;
74401;SDS011;62837;51.082;13.744;2023-04-30T01:38:44;9.90;;;4.50;;
74401;SDS011;62837;51.082;13.744;2023-04-30T01:41:31;12.30;;;5.80;;
74401;SDS011;62837;51.082;13.744;2023-04-30T01:44:16;6.00;;;3.70;;
74401;SDS011;62837;51.082;13.744;2023-04-30T01:47:05;7.50;;;4.20;;
74401;SDS011;62837;51.082;13.744;2023-04-30T01:49:44;5.30;;;3.00;;
74401;SDS011;62837;51.082;13.744;2023-04-30T01:52:27;6.10;;;3.30;;
74401;SDS011;62837;51.082;13.744;2023-04-30T01:55:10;5.00;;;3.50;;
74401;SDS011;62837;51.082;13.744;2023-04-30T01:57:48;5.80;;;3.80;;
74401;SDS011;62837;51.082;13.744;2023-04-30T02:00:24;7.40;;;3.90;;
74401;SDS011;62837;51.082;13.744;2023-04-30T02:02:57;6.10;;;4.00;;
74401;SDS011;62837;51.082;13.744;2023-04-30T02:05:29;9.90;;;4.80;;
74401;SDS011;62837;51.082;13.744;2023-04-30T02:08:00;5.10;;;3.70;;
74401;SDS011;62837;51.082;13.744;2023-04-30T02:10:31;5.80;;;3.70;;
74401;SDS011;62837;51.082;13.744;2023-04-30T02:13:02;7.40;;;3.50;;
74401;SDS011;62837;51.082;13.744;2023-04-30T02:15:33;6.40;;;4.00;;
74401;SDS011;62837;51.082;13.744;2023-04-30T02:18:04;7.00;;;3.60;;
74401;SDS011;62837;51.082;13.744;2023-04-30T02:20:35;8.70;;;4.20;;
74401;SDS011;62837;51.082;13.744;2023-04-30T02:23:06;7.40;;;4.70;;
74401;SDS011;62837;51.082;13.744;2023-04-30T02:25:37;8.20;;;4.60;;
74401;SDS011;62837;51.082;13.744;2023-04-30T02:28:09;8.80;;;4.50;;
74401;SDS011;62837;51.082;13.744;2023-04-30T02:30:39;7.90;;;4.80;;
74401;SDS011;62837;51.082;13.744;2023-04-30T02:33:10;7.80;;;5.20;;
74401;SDS011;62837;51.082;13.744;2023-04-30T02:35:41;11.00;;;5.90;;
74401;SDS011;62837;51.082;13.744;2023-04-30T02:38:11;8.10;;;5.20;;
74401;SDS011;62837;51.082;13.744;2023-04-30T02:40:42;6.00;;;5.10;;
74401;SDS011;62837;51.082;13.744;2023-04-30T02:43:13;8.90;;;5.10;;
74401;SDS011;62837;51.082;13.744;2023-04-30T02:45:43;11.20;;;5.20;;
74401;SDS011;62837;51.082;13.744;2023-04-30T02:48:14;10.70;;;5.10;;
74401;SDS011;62837;51.082;13.744;2023-04-30T02:50:45;9.00;;;5.10;;
74401;SDS011;62837;51.082;13.744;2023-04-30T02:53:16;8.90;;;5.40;;
74401;SDS011;62837;51.082;13.744;2023-04-30T02:55:46;9.30;;;5.30;;
74401;SDS011;62837;51.082;13.744;2023-04-30T02:58:18;8.10;;;5.10;;
74401;SDS011;62837;51.082;13.744;2023-04-30T03:00:48;7.80;;;5.40;;
74401;SDS011;62837;51.082;13.744;2023-04-30T03:03:19;9.30;;;5.30;;
74401;SDS011;62837;51.082;13.744;2023-04-30T03:05:50;10.20;;;5.90;;
74401;SDS011;62837;51.082;13.744;2023-04-30T03:08:23;7.90;;;4.80;;
74401;SDS011;62837;51.082;13.744;2023-04-30T03:10:54;9.50;;;5.20;;
74401;SDS011;62837;51.082;13.744;2023-04-30T03:13:25;10.10;;;5.40;;
74401;SDS011;62837;51.082;13.744;2023-04-30T03:15:57;8.10;;;5.00;;
74401;SDS011;62837;51.082;13.744;2023-04-30T03:18:29;6.70;;;4.20;;
74401;SDS011;62837;51.082;13.744;2023-04-30T03:21:00;5.50;;;4.00;;
74401;SDS011;62837;51.082;13.744;2023-04-30T03:23:31;7.40;;;4.20;;
74401;SDS011;62837;51.082;13.744;2023-04-30T03:26:02;5.90;;;2.80;;
74401;SDS011;62837;51.082;13.744;2023-04-30T03:28:33;4.70;;;3.20;;
74401;SDS011;62837;51.082;13.744;2023-04-30T03:31:04;8.50;;;3.40;;
74401;SDS011;62837;51.082;13.744;2023-04-30T03:33:35;5.80;;;3.40;;
74401;SDS011;62837;51.082;13.744;2023-04-30T03:36:06;5.10;;;3.00;;
74401;SDS011;62837;51.082;13.744;2023-04-30T03:38:37;4.00;;;2.70;;
74401;SDS011;62837;51.082;13.744;2023-04-30T03:41:08;4.10;;;3.00;;
74401;SDS011;62837;51.082;13.744;2023-04-30T03:43:39;4.30;;;3.50;;
74401;SDS011;62837;51.082;13.744;2023-04-30T03:46:10;5.00;;;3.60;;
74401;SDS011;62837;51.082;13.744;2023-04-30T03:48:40;4.30;;;2.70;;
74401;SDS011;62837;51.082;13.744;2023-04-30T03:51:11;5.00;;;3.60;;
74401;SDS011;62837;51.082;13.744;2023-04-30T03:53:42;4.50;;;2.40;;
74401;SDS011;62837;51.082;13.744;2023-04-30T03:56:13;5.20;;;2.60;;
74401;SDS011;62837;51.082;13.744;2023-04-30T03:58:44;4.30;;;2.60;;
74401;SDS011;62837;51.082;13.744;2023-04-30T04:01:15;5.60;;;2.50;;
74401;SDS011;62837;51.082;13.744;2023-04-30T04:03:46;4.10;;;2.80;;
74401;SDS011;62837;51.082;13.744;2023-04-30T04:06:17;4.40;;;2.60;;
74401;SDS011;62837;51.082;13.744;2023-04-30T04:08:48;4.90;;;3.20;;
74401;SDS011;62837;51.082;13.744;2023-04-30T04:11:19;5.70;;;2.70;;
74401;SDS011;62837;51.082;13.744;2023-04-30T04:13:51;4.00;;;2.90;;
74401;SDS011;62837;51.082;13.744;2023-04-30T04:16:22;5.10;;;2.90;;
74401;SDS011;62837;51.082;13.744;2023-04-30T04:18:53;6.00;;;2.60;;
74401;SDS011;62837;51.082;13.744;2023-04-30T04:21:24;4.30;;;2.50;;
74401;SDS011;62837;51.082;13.744;2023-04-30T04:23:56;4.50;;;2.00;;
74401;SDS011;62837;51.082;13.744;2023-04-30T04:26:27;3.80;;;2.30;;
74401;SDS011;62837;51.082;13.744;2023-04-30T04:28:57;4.60;;;2.40;;
74401;SDS011;62837;51.082;13.744;2023-04-30T04:31:28;4.90;;;2.80;;
74401;SDS011;62837;51.082;13.744;2023-04-30T04:34:01;4.00;;;2.20;;
74401;SDS011;62837;51.082;13.744;2023-04-30T04:36:33;6.00;;;2.30;;
74401;SDS011;62837;51.082;13.744;2023-04-30T04:39:03;4.90;;;1.90;;
74401;SDS011;62837;51.082;13.744;2023-04-30T04:41:35;2.80;;;1.90;;
74401;SDS011;62837;51.082;13.744;2023-04-30T04:44:06;4.40;;;2.70;;
74401;SDS011;62837;51.082;13.744;2023-04-30T04:46:37;4.80;;;2.70;;
74401;SDS011;62837;51.082;13.744;2023-04-30T04:49:09;4.00;;;2.40;;
74401;SDS011;62837;51.082;13.744;2023-04-30T04:51:40;5.40;;;1.60;;
74401;SDS011;62837;51.082;13.744;2023-04-30T04:54:11;3.20;;;2.40;;
74401;SDS011;62837;51.082;13.744;2023-04-30T04:56:42;3.80;;;2.00;;
74401;SDS011;62837;51.082;13.744;2023-04-30T04:59:12;5.00;;;2.20;;
74401;SDS011;62837;51.082;13.744;2023-04-30T05:01:45;3.90;;;2.20;;
74401;SDS011;62837;51.082;13.744;2023-04-30T05:04:16;4.20;;;1.70;;
74401;SDS011;62837;51.082;13.744;2023-04-30T05:06:46;4.30;;;2.10;;
74401;SDS011;62837;51.082;13.744;2023-04-30T05:09:17;4.80;;;1.90;;
74401;SDS011;62837;51.082;13.744;2023-04-30T05:11:48;3.90;;;1.80;;
74401;SDS011;62837;51.082;13.744;2023-04-30T05:14:19;5.10;;;2.20;;
74401;SDS011;62837;51.082;13.744;2023-04-30T05:16:50;4.20;;;1.70;;
74401;SDS011;62837;51.082;13.744;2023-04-30T05:19:20;3.30;;;1.70;;
74401;SDS011;62837;51.082;13.744;2023-04-30T05:21:51;2.70;;;1.60;;
74401;SDS011;62837;51.082;13.744;2023-04-30T05:24:22;3.50;;;1.60;;
74401;SDS011;62837;51.082;13.744;2023-04-30T05:26:53;3.70;;;1.60;;
74401;SDS011;62837;51.082;13.744;2023-04-30T05:29:24;4.40;;;1.50;;
74401;SDS011;62837;51.082;13.744;2023-04-30T05:31:54;3.30;;;1.80;;
74401;SDS011;62837;51.082;13.744;2023-04-30T05:34:25;4.60;;;2.40;;
74401;SDS011;62837;51.082;13.744;2023-04-30T05:36:56;3.30;;;1.80;;
74401;SDS011;62837;51.082;13.744;2023-04-30T05:39:26;4.00;;;1.70;;
74401;SDS011;62837;51.082;13.744;2023-04-30T05:41:57;4.10;;;1.80;;
74401;SDS011;62837;51.082;13.744;2023-04-30T05:44:29;3.90;;;1.70;;
74401;SDS011;62837;51.082;13.744;2023-04-30T05:47:00;5.20;;;1.90;;
74401;SDS011;62837;51.082;13.744;2023-04-30T05:49:30;3.10;;;1.60;;
74401;SDS011;62837;51.082;13.744;2023-04-30T05:52:03;6.50;;;1.60;;
74401;SDS011;62837;51.082;13.744;2023-04-30T05:54:34;5.40;;;2.20;;
74401;SDS011;62837;51.082;13.744;2023-04-30T05:57:05;2.20;;;1.70;;
74401;SDS011;62837;51.082;13.744;2023-04-30T05:59:36;3.60;;;2.00;;
74401;SDS011;62837;51.082;13.744;2023-04-30T06:02:07;3.30;;;1.50;;
74401;SDS011;62837;51.082;13.744;2023-04-30T06:04:37;5.60;;;1.90;;
74401;SDS011;62837;51.082;13.744;2023-04-30T06:07:09;7.00;;;1.80;;
74401;SDS011;62837;51.082;13.744;2023-04-30T06:09:40;3.40;;;1.60;;
74401;SDS011;62837;51.082;13.744;2023-04-30T06:12:11;3.20;;;1.30;;
74401;SDS011;62837;51.082;13.744;2023-04-30T06:14:42;4.50;;;1.50;;
74401;SDS011;62837;51.082;13.744;2023-04-30T06:17:12;3.80;;;2.10;;
74401;SDS011;62837;51.082;13.744;2023-04-30T06:19:43;4.40;;;1.50;;
74401;SDS011;62837;51.082;13.744;2023-04-30T06:22:14;4.80;;;2.10;;
74401;SDS011;62837;51.082;13.744;2023-04-30T06:24:44;6.50;;;1.90;;
74401;SDS011;62837;51.082;13.744;2023-04-30T06:27:15;4.30;;;1.70;;
74401;SDS011;62837;51.082;13.744;2023-04-30T06:29:46;3.40;;;1.70;;
74401;SDS011;62837;51.082;13.744;2023-04-30T06:32:17;2.90;;;1.30;;
74401;SDS011;62837;51.082;13.744;2023-04-30T06:34:47;5.20;;;1.50;;
74401;SDS011;62837;51.082;13.744;2023-04-30T06:37:18;3.10;;;1.30;;
74401;SDS011;62837;51.082;13.744;2023-04-30T06:39:49;4.20;;;1.50;;
74401;SDS011;62837;51.082;13.744;2023-04-30T06:42:20;3.60;;;1.20;;
74401;SDS011;62837;51.082;13.744;2023-04-30T06:44:51;3.90;;;1.50;;
74401;SDS011;62837;51.082;13.744;2023-04-30T06:47:22;3.70;;;1.80;;
74401;SDS011;62837;51.082;13.744;2023-04-30T06:49:53;3.80;;;2.30;;
74401;SDS011;62837;51.082;13.744;2023-04-30T06:52:24;4.70;;;2.30;;
74401;SDS011;62837;51.082;13.744;2023-04-30T06:54:54;4.20;;;2.80;;
74401;SDS011;62837;51.082;13.744;2023-04-30T06:57:25;4.10;;;1.60;;
74401;SDS011;62837;51.082;13.744;2023-04-30T06:59:56;3.10;;;1.30;;
74401;SDS011;62837;51.082;13.744;2023-04-30T07:02:27;6.90;;;3.50;;
74401;SDS011;62837;51.082;13.744;2023-04-30T07:04:58;10.10;;;5.30;;
74401;SDS011;62837;51.082;13.744;2023-04-30T07:07:29;8.00;;;5.00;;
74401;SDS011;62837;51.082;13.744;2023-04-30T07:10:00;4.40;;;1.80;;
74401;SDS011;62837;51.082;13.744;2023-04-30T07:12:31;4.20;;;1.60;;
74401;SDS011;62837;51.082;13.744;2023-04-30T07:15:02;4.30;;;1.90;;
74401;SDS011;62837;51.082;13.744;2023-04-30T07:20:04;4.80;;;1.90;;
74401;SDS011;62837;51.082;13.744;2023-04-30T07:22:37;5.30;;;2.00;;
74401;SDS011;62837;51.082;13.744;2023-04-30T07:25:08;6.90;;;4.40;;
74401;SDS011;62837;51.082;13.744;2023-04-30T07:27:39;4.30;;;1.60;;
74401;SDS011;62837;51.082;13.744;2023-04-30T07:30:10;3.50;;;1.60;;
74401;SDS011;62837;51.082;13.744;2023-04-30T07:32:41;6.90;;;3.70;;
74401;SDS011;62837;51.082;13.744;2023-04-30T07:35:12;6.80;;;3.10;;
74401;SDS011;62837;51.082;13.744;2023-04-30T07:37:42;4.40;;;1.60;;
74401;SDS011;62837;51.082;13.744;2023-04-30T07:40:13;4.60;;;1.70;;
74401;SDS011;62837;51.082;13.744;2023-04-30T07:43:02;6.70;;;3.40;;
74401;SDS011;62837;51.082;13.744;2023-04-30T07:45:33;6.10;;;2.60;;
74401;SDS011;62837;51.082;13.744;2023-04-30T07:48:04;7.00;;;2.20;;
74401;SDS011;62837;51.082;13.744;2023-04-30T07:50:35;4.40;;;2.20;;
74401;SDS011;62837;51.082;13.744;2023-04-30T07:53:06;4.80;;;2.00;;
74401;SDS011;62837;51.082;13.744;2023-04-30T07:55:37;6.40;;;2.60;;
74401;SDS011;62837;51.082;13.744;2023-04-30T07:58:07;5.30;;;2.20;;
74401;SDS011;62837;51.082;13.744;2023-04-30T08:00:38;7.40;;;4.50;;
74401;SDS011;62837;51.082;13.744;2023-04-30T08:03:09;8.40;;;3.30;;
74401;SDS011;62837;51.082;13.744;2023-04-30T08:05:40;6.80;;;3.20;;
74401;SDS011;62837;51.082;13.744;2023-04-30T08:08:11;6.10;;;2.30;;
74401;SDS011;62837;51.082;13.744;2023-04-30T08:10:42;5.20;;;2.30;;
74401;SDS011;62837;51.082;13.744;2023-04-30T08:13:12;5.10;;;2.40;;
74401;SDS011;62837;51.082;13.744;2023-04-30T08:15:43;4.30;;;2.20;;
74401;SDS011;62837;51.082;13.744;2023-04-30T08:18:14;4.80;;;1.80;;
74401;SDS011;62837;51.082;13.744;2023-04-30T08:20:45;4.70;;;1.90;;
74401;SDS011;62837;51.082;13.744;2023-04-30T08:23:16;5.20;;;1.60;;
74401;SDS011;62837;51.082;13.744;2023-04-30T08:25:47;3.20;;;1.70;;
74401;SDS011;62837;51.082;13.744;2023-04-30T08:28:18;7.90;;;3.10;;
74401;SDS011;62837;51.082;13.744;2023-04-30T08:30:49;4.70;;;1.70;;
74401;SDS011;62837;51.082;13.744;2023-04-30T08:33:20;3.90;;;1.70;;
74401;SDS011;62837;51.082;13.744;2023-04-30T08:35:51;6.10;;;2.20;;
74401;SDS011;62837;51.082;13.744;2023-04-30T08:38:22;8.10;;;3.00;;
74401;SDS011;62837;51.082;13.744;2023-04-30T08:41:07;6.60;;;2.50;;
74401;SDS011;62837;51.082;13.744;2023-04-30T08:43:39;6.00;;;2.20;;
74401;SDS011;62837;51.082;13.744;2023-04-30T08:46:12;5.30;;;1.80;;
74401;SDS011;62837;51.082;13.744;2023-04-30T08:48:44;7.90;;;3.40;;
74401;SDS011;62837;51.082;13.744;2023-04-30T08:51:16;3.60;;;1.40;;
74401;SDS011;62837;51.082;13.744;2023-04-30T08:53:47;8.20;;;2.50;;
74401;SDS011;62837;51.082;13.744;2023-04-30T08:56:19;3.20;;;1.70;;
74401;SDS011;62837;51.082;13.744;2023-04-30T08:58:52;4.30;;;1.60;;
74401;SDS011;62837;51.082;13.744;2023-04-30T09:01:23;5.30;;;1.40;;
74401;SDS011;62837;51.082;13.744;2023-04-30T09:03:55;6.20;;;2.90;;
74401;SDS011;62837;51.082;13.744;2023-04-30T09:06:26;5.20;;;1.80;;
74401;SDS011;62837;51.082;13.744;2023-04-30T09:08:58;5.20;;;1.80;;
74401;SDS011;62837;51.082;13.744;2023-04-30T09:11:40;4.60;;;1.50;;
74401;SDS011;62837;51.082;13.744;2023-04-30T09:14:11;6.50;;;3.00;;
74401;SDS011;62837;51.082;13.744;2023-04-30T09:16:51;3.70;;;1.30;;
74401;SDS011;62837;51.082;13.744;2023-04-30T09:19:23;3.80;;;1.30;;
74401;SDS011;62837;51.082;13.744;2023-04-30T09:21:55;14.90;;;2.10;;
74401;SDS011;62837;51.082;13.744;2023-04-30T09:24:26;5.10;;;2.40;;
74401;SDS011;62837;51.082;13.744;2023-04-30T09:27:16;5.60;;;2.00;;
74401;SDS011;62837;51.082;13.744;2023-04-30T09:29:47;8.10;;;2.50;;
74401;SDS011;62837;51.082;13.744;2023-04-30T09:32:18;3.40;;;1.10;;
74401;SDS011;62837;51.082;13.744;2023-04-30T09:34:49;3.10;;;1.30;;
74401;SDS011;62837;51.082;13.744;2023-04-30T09:37:20;2.80;;;1.40;;
74401;SDS011;62837;51.082;13.744;2023-04-30T09:40:03;7.50;;;1.90;;
74401;SDS011;62837;51.082;13.744;2023-04-30T09:42:35;5.70;;;1.60;;
74401;SDS011;62837;51.082;13.744;2023-04-30T09:45:07;4.20;;;1.70;;
74401;SDS011;62837;51.082;13.744;2023-04-30T09:47:40;4.90;;;1.40;;
74401;SDS011;62837;51.082;13.744;2023-04-30T09:50:11;6.80;;;2.30;;
74401;SDS011;62837;51.082;13.744;2023-04-30T09:52:44;5.20;;;2.60;;
74401;SDS011;62837;51.082;13.744;2023-04-30T09:55:20;6.10;;;2.70;;
74401;SDS011;62837;51.082;13.744;2023-04-30T09:57:52;16.10;;;10.40;;
74401;SDS011;62837;51.082;13.744;2023-04-30T10:00:23;13.10;;;9.40;;
74401;SDS011;62837;51.082;13.744;2023-04-30T10:02:54;6.80;;;4.20;;
74401;SDS011;62837;51.082;13.744;2023-04-30T10:07:56;4.50;;;3.30;;
74401;SDS011;62837;51.082;13.744;2023-04-30T10:10:26;7.10;;;3.30;;
74401;SDS011;62837;51.082;13.744;2023-04-30T10:13:02;11.10;;;5.10;;
74401;SDS011;62837;51.082;13.744;2023-04-30T10:15:37;9.20;;;5.90;;
74401;SDS011;62837;51.082;13.744;2023-04-30T10:18:13;6.90;;;4.40;;
74401;SDS011;62837;51.082;13.744;2023-04-30T10:20:47;8.70;;;5.00;;
74401;SDS011;62837;51.082;13.744;2023-04-30T10:23:21;6.40;;;3.70;;
74401;SDS011;62837;51.082;13.744;2023-04-30T10:25:53;14.10;;;9.60;;
74401;SDS011;62837;51.082;13.744;2023-04-30T10:28:24;4.80;;;3.10;;
74401;SDS011;62837;51.082;13.744;2023-04-30T10:30:57;5.20;;;3.50;;
74401;SDS011;62837;51.082;13.744;2023-04-30T10:33:31;6.20;;;2.60;;
74401;SDS011;62837;51.082;13.744;2023-04-30T10:36:05;4.70;;;3.00;;
74401;SDS011;62837;51.082;13.744;2023-04-30T10:38:41;6.00;;;4.30;;
74401;SDS011;62837;51.082;13.744;2023-04-30T10:41:15;4.60;;;2.00;;
74401;SDS011;62837;51.082;13.744;2023-04-30T10:43:49;4.70;;;2.70;;
74401;SDS011;62837;51.082;13.744;2023-04-30T10:46:23;5.00;;;2.50;;
74401;SDS011;62837;51.082;13.744;2023-04-30T10:51:25;3.90;;;1.60;;
74401;SDS011;62837;51.082;13.744;2023-04-30T10:54:15;5.00;;;1.30;;
74401;SDS011;62837;51.082;13.744;2023-04-30T10:56:52;6.00;;;1.60;;
74401;SDS011;62837;51.082;13.744;2023-04-30T10:59:37;6.40;;;1.30;;
74401;SDS011;62837;51.082;13.744;2023-04-30T11:02:13;3.20;;;1.30;;
74401;SDS011;62837;51.082;13.744;2023-04-30T11:07:48;1.90;;;0.80;;
74401;SDS011;62837;51.082;13.744;2023-04-30T11:10:21;4.40;;;1.80;;
74401;SDS011;62837;51.082;13.744;2023-04-30T11:12:53;3.30;;;1.20;;
74401;SDS011;62837;51.082;13.744;2023-04-30T11:15:32;1.50;;;0.80;;
74401;SDS011;62837;51.082;13.744;2023-04-30T11:18:08;3.20;;;0.90;;
74401;SDS011;62837;51.082;13.744;2023-04-30T11:20:47;4.70;;;1.60;;
74401;SDS011;62837;51.082;13.744;2023-04-30T11:23:22;4.00;;;1.20;;
74401;SDS011;62837;51.082;13.744;2023-04-30T11:26:08;3.00;;;1.10;;
74401;SDS011;62837;51.082;13.744;2023-04-30T11:28:39;5.00;;;1.40;;
74401;SDS011;62837;51.082;13.744;2023-04-30T11:31:21;4.70;;;1.20;;
74401;SDS011;62837;51.082;13.744;2023-04-30T11:34:00;3.00;;;1.20;;
74401;SDS011;62837;51.082;13.744;2023-04-30T11:36:32;3.90;;;1.40;;
74401;SDS011;62837;51.082;13.744;2023-04-30T11:39:04;2.80;;;1.00;;
74401;SDS011;62837;51.082;13.744;2023-04-30T11:41:41;4.20;;;1.10;;
74401;SDS011;62837;51.082;13.744;2023-04-30T11:44:24;6.00;;;1.30;;
74401;SDS011;62837;51.082;13.744;2023-04-30T11:46:55;2.90;;;1.30;;
74401;SDS011;62837;51.082;13.744;2023-04-30T11:49:27;4.80;;;1.10;;
74401;SDS011;62837;51.082;13.744;2023-04-30T11:51:58;3.90;;;0.80;;
74401;SDS011;62837;51.082;13.744;2023-04-30T11:54:31;2.60;;;0.90;;
74401;SDS011;62837;51.082;13.744;2023-04-30T11:57:05;3.60;;;0.80;;
74401;SDS011;62837;51.082;13.744;2023-04-30T11:59:40;4.20;;;1.10;;
74401;SDS011;62837;51.082;13.744;2023-04-30T12:02:14;3.20;;;1.00;;
74401;SDS011;62837;51.082;13.744;2023-04-30T12:04:45;4.20;;;0.90;;
74401;SDS011;62837;51.082;13.744;2023-04-30T12:07:16;4.20;;;1.00;;
74401;SDS011;62837;51.082;13.744;2023-04-30T12:09:52;4.60;;;1.10;;
74401;SDS011;62837;51.082;13.744;2023-04-30T12:12:28;4.70;;;1.30;;
74401;SDS011;62837;51.082;13.744;2023-04-30T12:15:02;2.40;;;1.10;;
74401;SDS011;62837;51.082;13.744;2023-04-30T12:17:41;2.30;;;0.70;;
74401;SDS011;62837;51.082;13.744;2023-04-30T12:20:13;3.90;;;0.90;;
74401;SDS011;62837;51.082;13.744;2023-04-30T12:22:45;3.20;;;1.00;;
74401;SDS011;62837;51.082;13.744;2023-04-30T12:25:16;4.10;;;1.10;;
74401;SDS011;62837;51.082;13.744;2023-04-30T12:27:50;3.00;;;1.30;;
74401;SDS011;62837;51.082;13.744;2023-04-30T12:30:22;4.50;;;1.70;;
74401;SDS011;62837;51.082;13.744;2023-04-30T12:32:55;3.00;;;1.20;;
74401;SDS011;62837;51.082;13.744;2023-04-30T12:35:30;8.10;;;2.70;;
74401;SDS011;62837;51.082;13.744;2023-04-30T12:38:04;3.70;;;1.80;;
74401;SDS011;62837;51.082;13.744;2023-04-30T12:40:36;3.00;;;1.50;;
74401;SDS011;62837;51.082;13.744;2023-04-30T12:43:07;6.60;;;2.10;;
74401;SDS011;62837;51.082;13.744;2023-04-30T12:45:43;3.70;;;1.80;;
74401;SDS011;62837;51.082;13.744;2023-04-30T12:48:15;5.00;;;1.90;;
74401;SDS011;62837;51.082;13.744;2023-04-30T12:50:53;4.60;;;1.60;;
74401;SDS011;62837;51.082;13.744;2023-04-30T12:53:27;4.30;;;1.10;;
74401;SDS011;62837;51.082;13.744;2023-04-30T12:56:09;4.30;;;1.90;;
74401;SDS011;62837;51.082;13.744;2023-04-30T12:58:42;2.60;;;1.00;;
74401;SDS011;62837;51.082;13.744;2023-04-30T13:01:17;3.00;;;0.80;;
74401;SDS011;62837;51.082;13.744;2023-04-30T13:03:50;5.50;;;1.00;;
74401;SDS011;62837;51.082;13.744;2023-04-30T13:06:21;2.70;;;0.90;;
74401;SDS011;62837;51.082;13.744;2023-04-30T13:08:52;3.20;;;1.60;;
74401;SDS011;62837;51.082;13.744;2023-04-30T13:11:25;1.90;;;1.20;;
74401;SDS011;62837;51.082;13.744;2023-04-30T13:13:56;4.60;;;2.60;;
74401;SDS011;62837;51.082;13.744;2023-04-30T13:16:27;3.10;;;0.90;;
74401;SDS011;62837;51.082;13.744;2023-04-30T13:18:58;5.90;;;1.10;;
74401;SDS011;62837;51.082;13.744;2023-04-30T13:21:29;3.90;;;1.60;;
74401;SDS011;62837;51.082;13.744;2023-04-30T13:24:00;3.90;;;1.00;;
74401;SDS011;62837;51.082;13.744;2023-04-30T13:26:31;4.00;;;1.20;;
74401;SDS011;62837;51.082;13.744;2023-04-30T13:29:02;2.30;;;0.90;;
74401;SDS011;62837;51.082;13.744;2023-04-30T13:31:33;2.10;;;0.60;;
74401;SDS011;62837;51.082;13.744;2023-04-30T13:34:04;3.20;;;0.80;;
74401;SDS011;62837;51.082;13.744;2023-04-30T13:36:35;3.20;;;0.90;;
74401;SDS011;62837;51.082;13.744;2023-04-30T13:39:06;4.00;;;1.50;;
74401;SDS011;62837;51.082;13.744;2023-04-30T13:41:37;3.90;;;0.70;;
74401;SDS011;62837;51.082;13.744;2023-04-30T13:44:08;3.10;;;1.00;;
74401;SDS011;62837;51.082;13.744;2023-04-30T13:46:39;4.20;;;1.30;;
74401;SDS011;62837;51.082;13.744;2023-04-30T13:49:10;3.00;;;1.00;;
74401;SDS011;62837;51.082;13.744;2023-04-30T13:51:41;5.70;;;0.90;;
74401;SDS011;62837;51.082;13.744;2023-04-30T13:54:12;1.80;;;0.80;;
74401;SDS011;62837;51.082;13.744;2023-04-30T13:56:43;1.90;;;0.80;;
74401;SDS011;62837;51.082;13.744;2023-04-30T13:59:15;2.50;;;0.50;;
74401;SDS011;62837;51.082;13.744;2023-04-30T14:01:46;4.60;;;0.90;;
74401;SDS011;62837;51.082;13.744;2023-04-30T14:04:16;2.00;;;0.50;;
74401;SDS011;62837;51.082;13.744;2023-04-30T14:06:47;2.70;;;0.60;;
74401;SDS011;62837;51.082;13.744;2023-04-30T14:09:23;1.80;;;0.50;;
74401;SDS011;62837;51.082;13.744;2023-04-30T14:11:53;1.60;;;0.50;;
74401;SDS011;62837;51.082;13.744;2023-04-30T14:14:25;4.30;;;0.80;;
74401;SDS011;62837;51.082;13.744;2023-04-30T14:16:57;2.30;;;0.80;;
74401;SDS011;62837;51.082;13.744;2023-04-30T14:19:29;1.90;;;0.60;;
74401;SDS011;62837;51.082;13.744;2023-04-30T14:21:59;2.20;;;0.70;;
74401;SDS011;62837;51.082;13.744;2023-04-30T14:24:30;1.60;;;0.40;;
74401;SDS011;62837;51.082;13.744;2023-04-30T14:27:02;1.60;;;0.70;;
74401;SDS011;62837;51.082;13.744;2023-04-30T14:29:32;1.80;;;0.80;;
74401;SDS011;62837;51.082;13.744;2023-04-30T14:32:04;2.00;;;0.80;;
74401;SDS011;62837;51.082;13.744;2023-04-30T14:34:35;2.00;;;0.70;;
74401;SDS011;62837;51.082;13.744;2023-04-30T14:37:06;1.10;;;0.40;;
74401;SDS011;62837;51.082;13.744;2023-04-30T14:39:37;3.80;;;0.80;;
74401;SDS011;62837;51.082;13.744;2023-04-30T14:42:08;2.00;;;0.70;;
74401;SDS011;62837;51.082;13.744;2023-04-30T14:44:39;1.80;;;0.70;;
74401;SDS011;62837;51.082;13.744;2023-04-30T14:47:09;1.50;;;0.60;;
74401;SDS011;62837;51.082;13.744;2023-04-30T14:49:41;3.30;;;1.10;;
74401;SDS011;62837;51.082;13.744;2023-04-30T14:52:12;1.60;;;0.50;;
74401;SDS011;62837;51.082;13.744;2023-04-30T14:54:43;1.00;;;0.40;;
74401;SDS011;62837;51.082;13.744;2023-04-30T14:57:14;3.40;;;0.90;;
74401;SDS011;62837;51.082;13.744;2023-04-30T14:59:45;1.20;;;0.70;;
74401;SDS011;62837;51.082;13.744;2023-04-30T15:02:16;2.40;;;0.50;;
74401;SDS011;62837;51.082;13.744;2023-04-30T15:04:48;1.00;;;0.30;;
74401;SDS011;62837;51.082;13.744;2023-04-30T15:07:19;2.90;;;1.20;;
74401;SDS011;62837;51.082;13.744;2023-04-30T15:09:50;2.30;;;0.90;;
74401;SDS011;62837;51.082;13.744;2023-04-30T15:12:21;3.00;;;0.60;;
74401;SDS011;62837;51.082;13.744;2023-04-30T15:14:52;4.90;;;0.60;;